createdAt,value
2018-12-27T00:01:32.072Z,97745.36
2018-12-27T00:03:58.189Z,97744.96
2018-12-27T00:06:24.029Z,97743.66
2018-12-27T00:08:53.028Z,97742.80
2018-12-27T00:11:19.194Z,97758.17
2018-12-27T00:13:48.256Z,97732.20
2018-12-27T00:16:14.078Z,97730.09
2018-12-27T00:18:40.541Z,97728.38
2018-12-27T00:21:06.917Z,97750.99
2018-12-27T00:23:35.658Z,97723.25
2018-12-27T00:26:01.477Z,97719.02
2018-12-27T00:28:30.573Z,97714.31
2018-12-27T00:30:56.401Z,97724.54
2018-12-27T00:33:25.260Z,97714.75
2018-12-27T00:35:51.094Z,97713.48
2018-12-27T00:38:17.247Z,97705.37
2018-12-27T00:40:43.103Z,97713.45
2018-12-27T00:43:09.231Z,97709.63
2018-12-27T00:45:38.411Z,97698.98
2018-12-27T00:48:04.288Z,97698.98
2018-12-27T00:50:31.605Z,97709.23
2018-12-27T00:52:57.471Z,97705.80
2018-12-27T00:55:28.353Z,97706.64
2018-12-27T00:57:54.246Z,97726.69
2018-12-27T01:00:23.411Z,97706.69
2018-12-27T01:02:50.720Z,97699.44
2018-12-27T01:05:16.804Z,97697.30
2018-12-27T01:07:42.907Z,97693.05
2018-12-27T01:10:11.560Z,97698.13
2018-12-27T01:12:37.393Z,97690.48
2018-12-27T01:15:03.275Z,97690.48
2018-12-27T01:17:29.384Z,97700.27
2018-12-27T01:19:55.566Z,97707.12
2018-12-27T01:22:24.374Z,97707.12
2018-12-27T01:24:50.219Z,97725.00
2018-12-27T01:27:18.870Z,97707.11
2018-12-27T01:29:44.810Z,97722.45
2018-12-27T01:32:13.469Z,97695.22
2018-12-27T01:34:39.415Z,97695.22
2018-12-27T01:37:06.920Z,97697.79
2018-12-27T01:39:32.762Z,97699.47
2018-12-27T01:42:01.360Z,97699.91
2018-12-27T01:44:27.194Z,97719.06
2018-12-27T01:46:57.804Z,97701.15
2018-12-27T01:49:23.641Z,97696.91
2018-12-27T01:51:49.470Z,97642.84
2018-12-27T01:54:15.321Z,97695.23
2018-12-27T01:56:41.190Z,97692.22
2018-12-27T01:59:09.777Z,97693.93
2018-12-27T02:01:35.645Z,97704.14
2018-12-27T02:04:04.474Z,97690.95
2018-12-27T02:06:30.615Z,97698.16
2018-12-27T02:08:59.579Z,97678.61
2018-12-27T02:11:25.416Z,97678.61
2018-12-27T02:13:54.020Z,97677.32
2018-12-27T02:16:20.223Z,97683.70
2018-12-27T02:18:46.495Z,97685.43
2018-12-27T02:21:12.277Z,97696.08
2018-12-27T02:23:43.290Z,97673.97
2018-12-27T02:26:09.152Z,97691.82
2018-12-27T02:28:35.089Z,97673.94
2018-12-27T02:31:00.953Z,97666.69
2018-12-27T02:33:35.078Z,97669.69
2018-12-27T02:35:54.551Z,97667.53
2018-12-27T02:38:20.632Z,97665.00
2018-12-27T02:40:47.749Z,97659.46
2018-12-27T02:43:13.613Z,97664.15
2018-12-27T02:45:44.035Z,97664.15
2018-12-27T02:48:10.096Z,97664.59
2018-12-27T02:50:38.752Z,97657.77
2018-12-27T02:53:04.574Z,97670.54
2018-12-27T02:55:31.517Z,97642.85
2018-12-27T03:00:27.832Z,97631.36
2018-12-27T03:02:53.965Z,97635.64
2018-12-27T03:05:19.923Z,97631.81
2018-12-27T03:07:45.747Z,97642.45
2018-12-27T03:10:11.932Z,97638.63
2018-12-27T03:12:40.856Z,97640.75
2018-12-27T03:15:06.678Z,97639.06
2018-12-27T03:17:35.572Z,97627.14
2018-12-27T03:20:01.705Z,97631.82
2018-12-27T03:22:27.544Z,97626.30
2018-12-27T03:24:54.211Z,97625.88
2018-12-27T03:27:22.516Z,97623.72
2018-12-27T03:29:48.312Z,97625.00
2018-12-27T03:32:18.907Z,97625.02
2018-12-27T03:34:44.741Z,97617.37
2018-12-27T03:37:13.736Z,97609.70
2018-12-27T03:39:39.580Z,97610.12
2018-12-27T03:42:05.717Z,97612.26
2018-12-27T03:44:31.570Z,97609.28
2018-12-27T03:46:57.720Z,97599.50
2018-12-27T03:49:23.556Z,97595.66
2018-12-27T03:51:49.385Z,97585.86
2018-12-27T03:54:17.705Z,97587.15
2018-12-27T03:56:43.966Z,97584.61
2018-12-27T03:59:12.653Z,97590.13
2018-12-27T04:01:38.507Z,97583.32
2018-12-27T04:04:07.471Z,97584.60
2018-12-27T04:06:33.617Z,97585.45
2018-12-27T04:09:04.102Z,97584.16
2018-12-27T04:11:29.973Z,97582.05
2018-12-27T04:13:57.204Z,97574.80
2018-12-27T04:16:23.389Z,97574.38
2018-12-27T04:18:49.477Z,97575.20
2018-12-27T04:21:15.331Z,97570.13
2018-12-27T04:23:41.292Z,97566.72
2018-12-27T04:26:10.642Z,97567.58
2018-12-27T04:28:36.455Z,97567.58
2018-12-27T04:31:03.649Z,97571.84
2018-12-27T04:33:33.532Z,97597.34
2018-12-27T04:35:59.734Z,97574.39
2018-12-27T04:38:25.598Z,97570.12
2018-12-27T04:40:54.521Z,97573.11
2018-12-27T04:43:20.723Z,97579.48
2018-12-27T04:45:49.384Z,97575.66
2018-12-27T04:48:15.477Z,97588.87
2018-12-27T04:50:44.375Z,97573.11
2018-12-27T04:53:10.542Z,97569.72
2018-12-27T04:55:36.762Z,97542.93
2018-12-27T04:58:02.630Z,97556.52
2018-12-27T05:00:28.487Z,97560.78
2018-12-27T05:02:54.712Z,97552.70
2018-12-27T05:05:20.538Z,97539.94
2018-12-27T05:07:49.394Z,97561.63
2018-12-27T05:10:15.203Z,97575.23
2018-12-27T05:12:43.919Z,97565.45
2018-12-27T05:15:09.758Z,97567.57
2018-12-27T05:17:40.276Z,97568.44
2018-12-27T05:20:06.086Z,97555.69
2018-12-27T05:22:35.012Z,97562.92
2018-12-27T05:25:00.832Z,97556.95
2018-12-27T05:27:29.955Z,97562.47
2018-12-27T05:29:55.786Z,97568.88
2018-12-27T05:32:21.647Z,97566.73
2018-12-27T05:34:47.547Z,97561.21
2018-12-27T05:37:13.329Z,97570.12
2018-12-27T05:39:42.346Z,97575.66
2018-12-27T05:42:08.187Z,97575.64
2018-12-27T05:44:34.290Z,97577.78
2018-12-27T05:47:00.135Z,97576.51
2018-12-27T05:49:29.061Z,97576.91
2018-12-27T05:51:54.871Z,97592.18
2018-12-27T05:54:23.766Z,97553.50
2018-12-27T05:56:49.642Z,97554.37
2018-12-27T05:59:17.982Z,97545.47
2018-12-27T06:01:44.124Z,97579.08
2018-12-27T06:04:15.079Z,97569.72
2018-12-27T06:06:40.894Z,97579.07
2018-12-27T06:09:06.973Z,97573.54
2018-12-27T06:11:32.846Z,97570.98
2018-12-27T06:13:58.688Z,97582.91
2018-12-27T06:16:24.631Z,97583.72
2018-12-27T06:18:50.721Z,97602.45
2018-12-27T06:21:20.191Z,97584.99
2018-12-27T06:23:46.025Z,97593.91
2018-12-27T06:26:14.380Z,97582.00
2018-12-27T06:28:40.492Z,97592.59
2018-12-27T06:31:09.479Z,97582.81
2018-12-27T06:33:36.042Z,97591.29
2018-12-27T06:36:04.964Z,97588.77
2018-12-27T06:38:30.821Z,97606.20
2018-12-27T06:40:59.914Z,97584.97
2018-12-27T06:43:25.784Z,97602.41
2018-12-27T06:45:51.615Z,97590.08
2018-12-27T06:48:17.757Z,97585.41
2018-12-27T06:50:43.892Z,97581.17
2018-12-27T06:53:12.821Z,97577.33
2018-12-27T06:55:38.652Z,97597.30
2018-12-27T06:58:04.630Z,97575.20
2018-12-27T07:00:30.502Z,97599.44
2018-12-27T07:02:59.789Z,97531.78
2018-12-27T07:05:26.816Z,97576.03
2018-12-27T07:07:56.175Z,97573.06
2018-12-27T07:10:22.029Z,97596.48
2018-12-27T07:12:50.984Z,97574.37
2018-12-27T07:15:16.803Z,97592.22
2018-12-27T07:17:45.450Z,97570.96
2018-12-27T07:20:11.278Z,97590.54
2018-12-27T07:22:37.356Z,97569.70
2018-12-27T07:25:03.767Z,97567.56
2018-12-27T07:27:29.575Z,97567.98
2018-12-27T07:29:55.417Z,97571.83
2018-12-27T07:32:21.570Z,97573.53
2018-12-27T07:34:56.481Z,97556.93
2018-12-27T07:37:20.052Z,97575.23
2018-12-27T07:39:46.163Z,97566.72
2018-12-27T07:42:12.233Z,97563.76
2018-12-27T07:44:41.397Z,97552.69
2018-12-27T07:47:07.522Z,97577.77
2018-12-27T07:49:36.252Z,97554.84
2018-12-27T07:52:02.126Z,97564.17
2018-12-27T07:54:31.130Z,97559.94
2018-12-27T07:56:57.000Z,97582.86
2018-12-27T07:59:23.170Z,97563.53
2018-12-27T08:01:49.005Z,97555.18
2018-12-27T08:04:14.876Z,97556.19
2018-12-27T08:06:41.035Z,97551.61
2018-12-27T08:09:07.132Z,97549.10
2018-12-27T08:11:36.040Z,97548.84
2018-12-27T08:14:01.831Z,97538.67
2018-12-27T08:16:30.505Z,97543.86
2018-12-27T08:18:56.561Z,97546.41
2018-12-27T08:21:25.419Z,97541.92
2018-12-27T08:23:51.277Z,97541.48
2018-12-27T08:26:19.921Z,97534.86
2018-12-27T08:28:46.136Z,97545.36
2018-12-27T08:31:17.079Z,97534.80
2018-12-27T08:33:43.061Z,97538.02
2018-12-27T08:36:09.175Z,97532.02
2018-12-27T08:38:35.026Z,97534.37
2018-12-27T08:41:01.009Z,97536.95
2018-12-27T08:43:26.856Z,97536.00
2018-12-27T08:45:52.987Z,97540.70
2018-12-27T08:48:21.580Z,97545.11
2018-12-27T08:50:48.239Z,97541.88
2018-12-27T08:53:15.328Z,97549.84
2018-12-27T08:55:41.176Z,97568.41
2018-12-27T08:58:10.591Z,97552.98
2018-12-27T09:00:37.793Z,97550.41
2018-12-27T09:03:05.763Z,97551.95
2018-12-27T09:05:31.998Z,97553.66
2018-12-27T09:08:00.582Z,97544.06
2018-12-27T09:10:26.447Z,97554.87
2018-12-27T09:12:52.289Z,97546.89
2018-12-27T09:15:18.140Z,97546.55
2018-12-27T09:17:43.978Z,97555.46
2018-12-27T09:20:12.965Z,97546.31
2018-12-27T09:22:38.825Z,97539.67
2018-12-27T09:25:07.895Z,97546.42
2018-12-27T09:27:33.731Z,97559.06
2018-12-27T09:30:01.002Z,97547.92
2018-12-27T09:32:27.129Z,97571.48
2018-12-27T09:34:55.596Z,97542.52
2018-12-27T09:37:21.700Z,97544.88
2018-12-27T09:39:52.471Z,97550.56
2018-12-27T09:42:27.067Z,97547.30
2018-12-27T09:44:53.289Z,97567.41
2018-12-27T09:47:19.450Z,97546.06
2018-12-27T09:49:45.310Z,97548.17
2018-12-27T09:52:11.143Z,97538.17
2018-12-27T09:54:37.284Z,97540.86
2018-12-27T09:57:03.106Z,97541.80
2018-12-27T09:59:28.943Z,97548.51
2018-12-27T10:01:54.787Z,97544.84
2018-12-27T10:04:27.776Z,97546.45
2018-12-27T10:06:54.167Z,97536.95
2018-12-27T10:09:19.977Z,97545.04
2018-12-27T10:11:45.837Z,97539.19
2018-12-27T10:14:11.660Z,97532.77
2018-12-27T10:16:38.154Z,97476.02
2018-12-27T10:19:03.959Z,97531.59
2018-12-27T10:21:32.919Z,97535.12
2018-12-27T10:23:58.739Z,97546.86
2018-12-27T10:26:24.871Z,97521.61
2018-12-27T10:28:50.779Z,97525.33
2018-12-27T10:31:16.683Z,97523.87
2018-12-27T10:33:42.540Z,97515.83
2018-12-27T10:36:08.676Z,97506.83
2018-12-27T10:38:37.599Z,97503.16
2018-12-27T10:41:03.728Z,97511.90
2018-12-27T10:43:32.434Z,97490.70
2018-12-27T10:46:01.924Z,97492.08
2018-12-27T10:48:28.130Z,97473.80
2018-12-27T10:50:53.928Z,97473.23
2018-12-27T10:53:21.412Z,97461.62
2018-12-27T10:55:47.279Z,97458.05
2018-12-27T10:58:15.900Z,97459.22
2018-12-27T11:00:41.741Z,97470.33
2018-12-27T11:03:07.608Z,97444.80
2018-12-27T11:05:33.425Z,97452.09
2018-12-27T11:07:59.286Z,97448.04
2018-12-27T11:10:28.117Z,97444.34
2018-12-27T11:12:53.981Z,97453.41
2018-12-27T11:15:22.653Z,97441.31
2018-12-27T11:17:48.498Z,97447.43
2018-12-27T11:20:17.107Z,97428.91
2018-12-27T11:22:42.953Z,97432.28
2018-12-27T11:25:12.151Z,97428.70
2018-12-27T11:27:38.252Z,97426.23
2018-12-27T11:30:07.280Z,97418.96
2018-12-27T11:32:33.510Z,97414.40
2018-12-27T11:35:02.637Z,97407.83
2018-12-27T11:37:28.470Z,97424.59
2018-12-27T11:39:54.586Z,97402.08
2018-12-27T11:42:20.430Z,97408.71
2018-12-27T11:44:46.584Z,97396.58
2018-12-27T11:47:13.525Z,97397.09
2018-12-27T11:49:39.406Z,97400.50
2018-12-27T11:52:08.274Z,97398.73
2018-12-27T11:54:34.363Z,97393.84
2018-12-27T11:57:03.328Z,97393.47
2018-12-27T11:59:29.890Z,97410.70
2018-12-27T12:01:57.349Z,97391.14
2018-12-27T12:04:23.173Z,97390.80
2018-12-27T12:06:51.431Z,97379.58
2018-12-27T12:09:17.301Z,97387.45
2018-12-27T12:11:45.643Z,97372.58
2018-12-27T12:14:11.572Z,97370.63
2018-12-27T12:16:37.380Z,97370.23
2018-12-27T12:19:03.269Z,97367.44
2018-12-27T12:21:29.092Z,97373.09
2018-12-27T12:23:58.312Z,97365.44
2018-12-27T12:26:24.172Z,97368.36
2018-12-27T12:28:53.525Z,97365.84
2018-12-27T12:31:19.662Z,97355.83
2018-12-27T12:33:48.227Z,97352.70
2018-12-27T12:36:14.067Z,97368.91
2018-12-27T12:38:42.137Z,97360.05
2018-12-27T12:41:08.192Z,97354.45
2018-12-27T12:43:38.612Z,97356.27
2018-12-27T12:46:04.460Z,97361.13
2018-12-27T12:48:31.498Z,97356.41
2018-12-27T12:50:57.323Z,97356.41
2018-12-27T12:53:23.444Z,97355.34
2018-12-27T12:55:49.562Z,97357.39
2018-12-27T12:58:16.652Z,97357.48
2018-12-27T13:00:44.162Z,97353.36
2018-12-27T13:03:10.018Z,97352.47
2018-12-27T13:05:38.862Z,97356.09
2018-12-27T13:08:04.974Z,97355.28
2018-12-27T13:10:33.561Z,97350.45
2018-12-27T13:12:59.701Z,97350.13
2018-12-27T13:15:28.576Z,97358.55
2018-12-27T13:17:54.692Z,97363.25
2018-12-27T13:20:23.540Z,97349.73
2018-12-27T13:22:49.360Z,97362.36
2018-12-27T13:25:17.977Z,97353.61
2018-12-27T13:27:44.103Z,97364.03
2018-12-27T13:30:10.034Z,97349.50
2018-12-27T13:32:36.135Z,97346.83
2018-12-27T13:35:02.343Z,97350.69
2018-12-27T13:37:31.014Z,97339.52
2018-12-27T13:39:57.135Z,97344.86
2018-12-27T13:42:26.300Z,97337.89
2018-12-27T13:44:52.172Z,97334.86
2018-12-27T13:47:18.286Z,97334.65
2018-12-27T13:49:44.134Z,97334.94
2018-12-27T13:52:12.648Z,97337.23
2018-12-27T13:54:38.453Z,97341.17
2018-12-27T13:57:09.241Z,97335.09
2018-12-27T13:59:35.064Z,97337.03
2018-12-27T14:02:03.689Z,97334.19
2018-12-27T14:04:29.594Z,97326.72
2018-12-27T14:06:55.449Z,97333.83
2018-12-27T14:09:21.299Z,97334.07
2018-12-27T14:11:50.484Z,97335.02
2018-12-27T14:14:16.732Z,97332.50
2018-12-27T14:16:42.577Z,97335.76
2018-12-27T14:19:08.522Z,97333.19
2018-12-27T14:21:35.067Z,97339.85
2018-12-27T14:24:03.791Z,97334.95
2018-12-27T14:26:29.614Z,97360.21
2018-12-27T14:29:00.113Z,97339.88
2018-12-27T14:31:25.971Z,97341.75
2018-12-27T14:33:54.575Z,97350.80
2018-12-27T14:36:20.704Z,97347.63
2018-12-27T14:38:49.897Z,97351.67
2018-12-27T14:41:15.716Z,97372.25
2018-12-27T14:43:41.572Z,97355.40
2018-12-27T14:46:07.660Z,97346.04
2018-12-27T14:48:33.516Z,97351.95
2018-12-27T14:50:59.344Z,97351.08
2018-12-27T14:53:25.604Z,97344.55
2018-12-27T14:55:54.490Z,97338.30
2018-12-27T14:58:20.577Z,97344.75
2018-12-27T15:00:48.617Z,97348.81
2018-12-27T15:03:14.449Z,97351.09
2018-12-27T15:05:43.419Z,97344.02
2018-12-27T15:08:09.924Z,97349.83
2018-12-27T15:10:37.940Z,97351.09
2018-12-27T15:13:03.781Z,97352.62
2018-12-27T15:15:35.574Z,97349.55
2018-12-27T15:18:01.409Z,97351.84
2018-12-27T15:20:27.240Z,97349.91
2018-12-27T15:22:53.078Z,97354.69
2018-12-27T15:25:18.924Z,97358.49
2018-12-27T15:27:44.759Z,97360.84
2018-12-27T15:30:30.740Z,97361.38
2018-12-27T15:32:56.815Z,97355.70
2018-12-27T15:35:22.666Z,97363.55
2018-12-27T15:37:48.785Z,97363.63
2018-12-27T15:40:14.628Z,97364.65
2018-12-27T15:42:40.710Z,97366.42
2018-12-27T15:45:06.854Z,97361.61
2018-12-27T15:47:32.722Z,97368.29
2018-12-27T15:49:58.678Z,97369.67
2018-12-27T15:52:26.290Z,97375.42
2018-12-27T15:54:52.139Z,97376.32
2018-12-27T15:57:17.987Z,97377.44
2018-12-27T15:59:44.125Z,97374.87
2018-12-27T16:02:10.040Z,97376.41
2018-12-27T16:04:35.874Z,97357.07
2018-12-27T16:07:02.263Z,97379.30
2018-12-27T16:09:28.141Z,97379.02
2018-12-27T16:11:55.023Z,97382.41
2018-12-27T16:14:20.918Z,97392.46
2018-12-27T16:16:46.777Z,97385.24
2018-12-27T16:19:13.899Z,97386.13
2018-12-27T16:21:40.971Z,97395.12
2018-12-27T16:24:10.174Z,97388.72
2018-12-27T16:26:36.293Z,97396.59
2018-12-27T16:29:03.701Z,97384.16
2018-12-27T16:31:29.541Z,97390.56
2018-12-27T16:33:55.408Z,97330.20
2018-12-27T16:36:21.239Z,97385.70
2018-12-27T16:38:47.034Z,97372.09
2018-12-27T16:41:15.163Z,97373.84
2018-12-27T16:43:41.007Z,97371.99
2018-12-27T16:46:09.328Z,97369.79
2018-12-27T16:48:35.160Z,97371.57
2018-12-27T16:51:01.220Z,97372.59
2018-12-27T16:53:27.024Z,97374.42
2018-12-27T16:55:52.842Z,97374.77
2018-12-27T16:58:23.718Z,97374.08
2018-12-27T17:00:49.581Z,97368.84
2018-12-27T17:03:18.198Z,97372.79
2018-12-27T17:05:44.302Z,97386.91
2018-12-27T17:08:13.480Z,97374.92
2018-12-27T17:10:39.563Z,97379.21
2018-12-27T17:13:08.362Z,97378.12
2018-12-27T17:15:34.185Z,97383.25
2018-12-27T17:18:03.223Z,97375.16
2018-12-27T17:20:29.183Z,97373.11
2018-12-27T17:22:55.160Z,97379.77
2018-12-27T17:25:21.263Z,97381.11
2018-12-27T17:27:50.416Z,97378.95
2018-12-27T17:30:16.282Z,97384.62
2018-12-27T17:32:44.854Z,97385.46
2018-12-27T17:35:10.718Z,97414.98
2018-12-27T17:37:40.876Z,97392.05
2018-12-27T17:40:06.689Z,97395.90
2018-12-27T17:42:35.344Z,97390.91
2018-12-27T17:45:01.190Z,97395.95
2018-12-27T17:47:27.345Z,97399.42
2018-12-27T17:49:53.207Z,97396.19
2018-12-27T17:52:19.016Z,97393.70
2018-12-27T17:54:47.743Z,97399.23
2018-12-27T17:57:13.599Z,97398.02
2018-12-27T17:59:40.851Z,97391.23
2018-12-27T18:02:06.721Z,97396.44
2018-12-27T18:04:35.737Z,97393.47
2018-12-27T18:07:01.564Z,97396.44
2018-12-27T18:09:30.433Z,97396.84
2018-12-27T18:11:56.278Z,97396.84
2018-12-27T18:14:25.406Z,97397.23
2018-12-27T18:16:51.537Z,97417.69
2018-12-27T18:19:20.135Z,97397.22
2018-12-27T18:21:45.981Z,97402.39
2018-12-27T18:24:12.090Z,97396.48
2018-12-27T18:26:37.952Z,97396.11
2018-12-27T18:29:03.791Z,97387.67
2018-12-27T18:31:32.723Z,97396.27
2018-12-27T18:33:58.907Z,97400.03
2018-12-27T18:36:25.866Z,97390.11
2018-12-27T18:38:52.023Z,97398.67
2018-12-27T18:41:22.923Z,97398.27
2018-12-27T18:43:48.766Z,97396.65
2018-12-27T18:46:17.364Z,97397.48
2018-12-27T18:48:43.173Z,97400.91
2018-12-27T18:51:11.788Z,97399.20
2018-12-27T18:53:37.872Z,97397.88
2018-12-27T18:56:06.529Z,97394.91
2018-12-27T18:58:32.280Z,97403.81
2018-12-27T19:00:58.164Z,97407.79
2018-12-27T19:03:24.320Z,97402.24
2018-12-27T19:05:50.528Z,97403.14
2018-12-27T19:08:16.375Z,97415.09
2018-12-27T19:10:42.220Z,97361.25
2018-12-27T19:13:12.738Z,97416.82
2018-12-27T19:15:45.072Z,97415.27
2018-12-27T19:18:23.529Z,97414.00
2018-12-27T19:20:51.974Z,97410.97
2018-12-27T19:23:17.823Z,97415.61
2018-12-27T19:25:43.686Z,97413.52
2018-12-27T19:28:09.510Z,97415.16
2018-12-27T19:30:35.702Z,97415.09
2018-12-27T19:33:01.570Z,97418.45
2018-12-27T19:35:27.390Z,97417.17
2018-12-27T19:37:53.570Z,97406.09
2018-12-27T19:40:19.734Z,97413.30
2018-12-27T19:42:45.855Z,97406.42
2018-12-27T19:45:12.009Z,97406.84
2018-12-27T19:47:38.154Z,97408.51
2018-12-27T19:50:04.128Z,97406.78
2018-12-27T19:52:29.959Z,97417.02
2018-12-27T19:54:56.069Z,97414.84
2018-12-27T19:57:22.299Z,97414.84
2018-12-27T19:59:52.767Z,97419.52
2018-12-27T20:02:18.854Z,97414.80
2018-12-27T20:04:44.992Z,97417.00
2018-12-27T20:07:10.864Z,97411.83
2018-12-27T20:09:36.689Z,97409.41
2018-12-27T20:12:02.547Z,97429.25
2018-12-27T20:14:28.376Z,97419.46
2018-12-27T20:16:54.592Z,97408.61
2018-12-27T20:19:20.486Z,97420.53
2018-12-27T20:21:49.028Z,97418.33
2018-12-27T20:24:15.092Z,97419.72
2018-12-27T20:26:43.967Z,97417.95
2018-12-27T20:29:09.830Z,97417.02
2018-12-27T20:31:38.421Z,97415.21
2018-12-27T20:34:07.595Z,97415.34
2018-12-27T20:36:33.571Z,97420.95
2018-12-27T20:38:59.670Z,97418.84
2018-12-27T20:41:28.889Z,97419.17
2018-12-27T20:43:55.018Z,97418.78
2018-12-27T20:46:20.994Z,97414.53
2018-12-27T20:48:47.130Z,97427.75
2018-12-27T20:51:12.984Z,97429.10
2018-12-27T20:53:38.824Z,97427.81
2018-12-27T20:56:04.771Z,97422.44
2018-12-27T20:58:33.633Z,97425.53
2018-12-27T21:00:59.465Z,97438.70
2018-12-27T21:03:27.226Z,97422.17
2018-12-27T21:05:53.075Z,97434.98
2018-12-27T21:08:21.933Z,97402.94
2018-12-27T21:10:47.755Z,97409.59
2018-12-27T21:13:16.913Z,97413.03
2018-12-27T21:15:42.749Z,97410.48
2018-12-27T21:18:13.077Z,97415.55
2018-12-27T21:20:38.932Z,97422.81
2018-12-27T21:23:07.974Z,97420.39
2018-12-27T21:25:33.801Z,97426.44
2018-12-27T21:27:59.647Z,97426.03
2018-12-27T21:30:25.730Z,97427.83
2018-12-27T21:32:51.885Z,97418.83
2018-12-27T21:35:17.763Z,97426.50
2018-12-27T21:37:43.604Z,97426.85
2018-12-27T21:40:14.667Z,97431.93
2018-12-27T21:42:40.641Z,97431.09
2018-12-27T21:45:09.521Z,97427.30
2018-12-27T21:47:35.378Z,97430.63
2018-12-27T21:50:04.385Z,97428.83
2018-12-27T21:52:30.543Z,97451.84
2018-12-27T21:54:56.684Z,97437.04
2018-12-27T21:57:22.810Z,97438.39
2018-12-27T21:59:51.484Z,97432.91
2018-12-27T22:02:17.447Z,97430.69
2018-12-27T22:04:43.613Z,97440.02
2018-12-27T22:07:09.700Z,97443.44
2018-12-27T22:09:35.789Z,97427.14
2018-12-27T22:12:04.553Z,97427.14
2018-12-27T22:14:30.360Z,97421.84
2018-12-27T22:16:59.358Z,97427.38
2018-12-27T22:19:25.492Z,97413.21
2018-12-27T22:21:54.120Z,97413.21
2018-12-27T22:24:19.945Z,97425.05
2018-12-27T22:26:47.422Z,97416.09
2018-12-27T22:29:13.242Z,97435.29
2018-12-27T22:31:41.733Z,97414.73
2018-12-27T22:34:07.561Z,97418.56
2018-12-27T22:36:38.150Z,97412.98
2018-12-27T22:39:06.104Z,97414.32
2018-12-27T22:41:31.909Z,97408.31
2018-12-27T22:43:57.756Z,97404.82
2018-12-27T22:46:23.692Z,97402.14
2018-12-27T22:48:49.816Z,97402.55
2018-12-27T22:51:16.026Z,97393.23
2018-12-27T22:53:45.702Z,97394.05
2018-12-27T22:56:11.829Z,97396.59
2018-12-27T22:58:38.078Z,97401.72
2018-12-27T23:01:04.307Z,97399.96
2018-12-27T23:03:33.684Z,97404.00
2018-12-27T23:05:59.818Z,97403.89
2018-12-27T23:08:28.687Z,97398.81
2018-12-27T23:10:54.625Z,97399.70
2018-12-27T23:13:21.950Z,97400.16
2018-12-27T23:15:47.926Z,97398.88
2018-12-27T23:18:13.749Z,97393.41
2018-12-27T23:20:39.587Z,97400.42
2018-12-27T23:23:11.318Z,97402.98
2018-12-27T23:25:36.397Z,97400.72
2018-12-27T23:28:02.351Z,97399.88
2018-12-27T23:30:28.478Z,97411.02
2018-12-27T23:32:57.897Z,97428.47
2018-12-27T23:35:24.026Z,97404.08
2018-12-27T23:37:49.853Z,97400.13
2018-12-27T23:40:18.870Z,97394.29
2018-12-27T23:42:44.715Z,97407.62
2018-12-27T23:45:13.283Z,97392.16
2018-12-27T23:47:39.123Z,97404.02
2018-12-27T23:50:08.044Z,97384.34
2018-12-27T23:52:34.197Z,97374.98
2018-12-27T23:55:00.348Z,97374.98
2018-12-27T23:57:26.165Z,97381.45
2018-12-27T23:59:52.107Z,97383.08
